M I D A S
Marine Information and Data Acquisition System
Tripno 1010 of the Zeeleeuw from 2005-01-17 08:11:22 to 2005-01-17 12:48:56
Back to CruiseResearch ActivitiesStationsMapUnderway DataData graphs

EquipmentUnitsComment
TimeDGPSUTC
LatitudeDGPSDM.mWGS84
LongitudeDGPSDM.mWGS84
TemperatureSBE03/SBE38deg celciusITS90
ConductivitySBE21S/mITS90
SalinitySBE21 Practical Salinity Units
ChlorophylAChelsea fluorimeterg/lCalibrated in Aceton
Missing or incorrect values are displayed as -999
Sea surface data collected by the RV Zeeleeuw from 2005-01-17 08:11:22 to 2005-01-17 12:48:56
Time Latitude Longitude Temperature Conductivity Salinity ChlorophylA
2005-01-17 08:12:25 51°13.596 2°56.102 7.072967 3.189326 31.006881 1.005349
2005-01-17 08:13:26 51°13.595 2°56.099 7.038552 3.236292 31.55309 1.039059
2005-01-17 08:14:26 51°13.614 2°56.035 7.01763 3.202384 31.210179 1.746956
2005-01-17 08:15:26 51°13.642 2°55.934 6.946284 3.204807 31.291664 1.342443
2005-01-17 08:16:26 51°13.678 2°55.812 6.917003 3.218286 31.474615 0.97164
2005-01-17 08:17:25 51°13.696 2°55.744 6.892008 3.225447 31.584101 0.870512
2005-01-17 08:18:26 51°13.711 2°55.756 6.885585 3.209125 31.420331 0.769383
2005-01-17 08:19:26 51°13.72 2°55.745 6.871304 3.209441 31.431514 0.97164
2005-01-17 08:20:24 51°13.792 2°55.673 6.874542 3.223973 31.592279 0.97164
2005-01-17 08:21:24 51°13.913 2°55.572 6.831098 3.19133 31.266065 1.645828
2005-01-17 08:22:26 51°14.054 2°55.466 6.817337 3.236506 31.781698 1.645828
2005-01-17 08:23:26 51°14.208 2°55.338 6.800808 3.226607 31.681101 1.140187
2005-01-17 08:24:26 51°14.337 2°55.115 6.778906 3.210601 31.539878 0.97164
2005-01-17 08:25:25 51°14.477 2°54.891 6.778693 3.235664 31.812679 0.93793
2005-01-17 08:26:26 51°14.643 2°54.69 6.753858 3.323919 32.802671 1.005349
2005-01-17 08:27:26 51°14.811 2°54.507 6.847247 3.364258 33.214936 0.803093
2005-01-17 08:28:26 51°14.962 2°54.345 6.980588 3.399649 33.496714 0.735674
2005-01-17 08:29:25 51°15.059 2°54.246 7.094877 3.43146 33.706722 0.668255
2005-01-17 08:30:25 51°15.141 2°54.173 7.132277 3.445048 33.788528 0.567127
2005-01-17 08:31:26 51°15.212 2°54.1 7.14354 3.449261 33.81203 0.634546
2005-01-17 08:32:24 51°15.275 2°54.036 7.145021 3.449999 33.816742 0.600836
2005-01-17 08:33:26 51°15.382 2°53.925 7.149515 3.440729 33.710868 0.668255
2005-01-17 08:34:26 51°15.562 2°53.726 7.144598 3.446101 33.762715 0.701965
2005-01-17 08:35:25 51°15.763 2°53.547 7.159824 3.448524 33.79654 0.567127
2005-01-17 08:36:26 51°15.976 2°53.372 7.158767 3.456951 33.870028 0.803093
2005-01-17 08:37:26 51°16.187 2°53.203 7.161463 3.457899 33.887823 0.735674
2005-01-17 08:38:26 51°16.398 2°53.037 7.18831 3.463693 33.940095 0.600836
2005-01-17 08:39:26 51°16.608 2°52.873 7.230674 3.467696 33.945417 0.668255
2005-01-17 08:40:26 51°16.823 2°52.722 7.253165 3.473174 33.970085 0.904221
2005-01-17 08:41:25 51°17.035 2°52.576 7.268577 3.475491 33.980319 0.93793
2005-01-17 08:42:26 51°17.256 2°52.424 7.287256 3.478335 33.995439 1.005349
2005-01-17 08:43:26 51°17.475 2°52.276 7.274171 3.480337 34.00721 0.93793
2005-01-17 08:44:26 51°17.661 2°52.051 7.258813 3.478968 34.020584 0.97164
2005-01-17 08:45:26 51°17.815 2°51.769 7.301605 3.481917 34.030185 1.039059
2005-01-17 08:46:26 51°17.969 2°51.483 7.321646 3.486868 34.055689 0.93793
2005-01-17 08:47:26 51°18.089 2°51.159 7.324599 3.489396 34.072326 1.072768
2005-01-17 08:48:24 51°18.201 2°50.842 7.358759 3.492557 34.094982 1.241315
2005-01-17 08:49:26 51°18.32 2°50.509 7.374515 3.495717 34.09353 1.173896
2005-01-17 08:50:26 51°18.437 2°50.186 7.367086 3.494558 34.080139 1.173896
2005-01-17 08:51:26 51°18.551 2°49.862 7.345582 3.493294 34.078887 1.072768
2005-01-17 08:52:26 51°18.663 2°49.537 7.316953 3.489712 34.067446 1.207606
2005-01-17 08:53:26 51°18.776 2°49.211 7.29939 3.486131 34.051008 1.072768
2005-01-17 08:54:25 51°18.889 2°48.887 7.291899 3.484129 34.041743 1.039059
2005-01-17 08:55:26 51°19.005 2°48.552 7.293534 3.483286 34.032593 0.93793
2005-01-17 08:56:26 51°19.119 2°48.225 7.291424 3.480337 34.002229 1.308734
2005-01-17 08:57:26 51°19.234 2°47.9 7.300023 3.476439 33.959916 0.97164
2005-01-17 08:58:26 51°19.348 2°47.579 7.349747 3.48434 34.028248 0.93793
2005-01-17 08:59:25 51°19.46 2°47.261 7.442976 3.493294 34.044052 0.870512
2005-01-17 09:00:24 51°19.572 2°46.944 7.504898 3.505092 34.099689 0.769383
2005-01-17 09:01:26 51°19.685 2°46.608 7.578739 3.514994 34.13966 0.97164
2005-01-17 09:02:26 51°19.787 2°46.275 7.668497 3.526688 34.192227 0.870512
2005-01-17 09:03:26 51°19.9 2°46.008 7.723395 3.538698 34.24144 0.735674
2005-01-17 09:04:26 51°19.909 2°45.852 7.73461 3.543333 34.269013 0.769383
2005-01-17 09:05:24 51°19.889 2°45.791 7.73178 3.544281 34.270953 0.870512
2005-01-17 09:06:26 51°19.899 2°45.782 7.734033 3.535431 34.173346 0.735674
2005-01-17 09:07:25 51°19.915 2°45.779 7.724181 3.544176 34.271471 0.701965
2005-01-17 09:08:26 51°19.93 2°45.763 7.736601 3.541963 34.235312 0.904221
2005-01-17 09:09:26 51°19.947 2°45.745 7.768348 3.544386 34.236625 0.93793
2005-01-17 09:10:26 51°19.966 2°45.719 7.761958 3.545018 34.25413 0.836802
2005-01-17 09:11:26 51°19.939 2°45.668 7.739169 3.54407 34.25796 0.904221
2005-01-17 09:12:26 51°19.912 2°45.743 7.752319 3.543333 34.239315 1.376153
2005-01-17 09:13:26 51°19.93 2°45.803 7.754834 3.543859 34.22932 0.97164
2005-01-17 09:14:26 51°19.944 2°45.816 7.759444 3.54407 34.232407 1.005349
2005-01-17 09:15:26 51°19.957 2°45.834 7.7695 3.544597 34.236417 0.836802
2005-01-17 09:16:26 51°19.968 2°45.852 7.762953 3.545334 34.236925 1.005349
2005-01-17 09:17:26 51°19.98 2°45.869 7.762901 3.545756 34.246393 0.904221
2005-01-17 09:18:26 51°19.993 2°45.884 7.760596 3.546177 34.254216 0.836802
2005-01-17 09:19:26 51°20.005 2°45.902 7.754886 3.546493 34.257611 0.870512
2005-01-17 09:20:26 51°19.995 2°45.932 7.752424 3.546493 34.257611 0.97164
2005-01-17 09:21:26 51°19.985 2°45.944 7.755672 3.546915 34.262962 0.870512
2005-01-17 09:22:26 51°19.995 2°45.957 7.753157 3.547125 34.265226 0.93793
2005-01-17 09:23:26 51°20.011 2°45.969 7.751795 3.547442 34.271095 0.870512
2005-01-17 09:24:26 51°20.027 2°45.985 7.750957 3.54702 34.267392 0.803093
2005-01-17 09:25:26 51°20.041 2°46.002 7.749962 3.547547 34.271402 0.93793
2005-01-17 09:26:26 51°20.018 2°46.061 7.753419 3.547336 34.270787 0.870512
2005-01-17 09:27:26 51°19.926 2°46.029 7.752372 3.547968 34.272631 0.93793
2005-01-17 09:28:26 51°19.786 2°45.841 7.748652 3.54702 34.27069 0.769383
2005-01-17 09:29:26 51°19.623 2°45.612 7.736025 3.546388 34.268022 0.803093
2005-01-17 09:30:26 51°19.456 2°45.389 7.725439 3.545019 34.263202 0.803093
2005-01-17 09:31:26 51°19.29 2°45.164 7.713855 3.544176 34.264868 0.803093
2005-01-17 09:32:26 51°19.125 2°44.936 7.697132 3.542069 34.258718 1.005349
2005-01-17 09:33:26 51°18.961 2°44.704 7.673953 3.539224 34.249586 0.870512
2005-01-17 09:34:26 51°18.799 2°44.469 7.648509 3.535748 34.234467 0.836802
2005-01-17 09:35:26 51°18.684 2°44.302 7.619644 3.532693 34.228008 0.803093
2005-01-17 09:36:24 51°18.632 2°44.193 7.607359 3.530902 34.224419 0.93793
2005-01-17 09:37:26 51°18.612 2°44.148 7.608094 3.529848 34.214719 0.97164
2005-01-17 09:38:26 51°18.63 2°44.148 7.605574 3.529322 34.219792 1.039059
2005-01-17 09:39:26 51°18.647 2°44.135 7.604472 3.529322 34.221446 0.97164
2005-01-17 09:40:26 51°18.65 2°44.103 7.613502 3.530691 34.215534 0.870512
2005-01-17 09:41:26 51°18.67 2°44.102 7.608567 3.529954 34.221643 0.836802
2005-01-17 09:42:26 51°18.694 2°44.112 7.608777 3.529638 34.220717 1.039059
2005-01-17 09:43:26 51°18.713 2°44.112 7.610247 3.529849 34.222161 0.93793
2005-01-17 09:44:26 51°18.699 2°44.055 7.609092 3.530797 34.227419 1.005349
2005-01-17 09:45:26 51°18.648 2°44.087 7.613239 3.529954 34.221643 1.072768
2005-01-17 09:46:26 51°18.594 2°44.141 7.600954 3.529743 34.220199 0.870512
2005-01-17 09:47:26 51°18.593 2°44.155 7.594127 3.527847 34.20968 0.93793
2005-01-17 09:48:26 51°18.604 2°44.165 7.594442 3.527531 34.207927 0.904221
2005-01-17 09:49:26 51°18.621 2°44.172 7.596228 3.528058 34.212779 0.904221
2005-01-17 09:50:26 51°18.639 2°44.178 7.597225 3.527952 34.210816 0.904221
2005-01-17 09:51:26 51°18.634 2°44.232 7.598853 3.528163 34.210607 1.039059
2005-01-17 09:52:26 51°18.515 2°44.234 7.585567 3.527952 34.209162 0.97164
2005-01-17 09:53:26 51°18.364 2°44.038 7.575797 3.525635 34.199886 0.836802
2005-01-17 09:54:26 51°18.193 2°43.822 7.577741 3.524476 34.193177 1.106477
2005-01-17 09:55:26 51°18.014 2°43.625 7.58042 3.524476 34.191523 1.039059
2005-01-17 09:56:26 51°17.827 2°43.441 7.580787 3.524792 34.194104 0.836802
2005-01-17 09:57:26 51°17.632 2°43.28 7.599221 3.526688 34.204629 1.039059
2005-01-17 09:58:25 51°17.44 2°43.122 7.622269 3.530691 34.228765 1.072768
2005-01-17 09:59:26 51°17.272 2°42.995 7.653599 3.53638 34.261115 1.173896
2005-01-17 10:00:25 51°17.217 2°42.986 7.672222 3.540594 34.28582 1.207606
2005-01-17 10:01:26 51°17.224 2°42.994 7.668445 3.541858 34.287024 1.173896
2005-01-17 10:02:26 51°17.233 2°43.008 7.668865 3.541964 34.292294 1.308734
2005-01-17 10:03:25 51°17.24 2°43.022 7.665507 3.541648 34.288064 1.275024
2005-01-17 10:04:26 51°17.247 2°43.034 7.660734 3.5407 34.2853 1.072768
2005-01-17 10:05:33 51°17.256 2°43.048 7.656222 3.540278 34.282417 1.275024
2005-01-17 10:06:33 51°17.268 2°43.054 7.65916 3.540278 34.284899 1.207606
2005-01-17 10:07:34 51°17.281 2°43.06 7.659055 3.540173 34.279628 1.039059
2005-01-17 10:08:33 51°17.294 2°43.065 7.66876 3.540384 34.281897 1.308734
2005-01-17 10:09:33 51°17.307 2°43.072 7.666504 3.541016 34.279605 1.241315
2005-01-17 10:10:33 51°17.321 2°43.077 7.661101 3.540489 34.279723 1.342443
2005-01-17 10:11:33 51°17.328 2°43.095 7.648981 3.539225 34.274381 1.207606
2005-01-17 10:12:33 51°17.285 2°43.123 7.632661 3.537328 34.267193 1.072768
2005-01-17 10:13:33 51°17.164 2°43.13 7.637857 3.536275 34.26329 1.241315
2005-01-17 10:14:33 51°16.96 2°43.084 7.645466 3.537118 34.26575 1.173896
2005-01-17 10:15:33 51°16.751 2°42.993 7.659475 3.540068 34.284285 1.275024
2005-01-17 10:16:33 51°16.539 2°42.902 7.671173 3.542491 34.29962 1.140187
2005-01-17 10:17:33 51°16.328 2°42.815 7.580262 3.533325 34.226552 1.173896
2005-01-17 10:18:33 51°16.124 2°42.728 7.496326 3.520999 34.185455 1.106477
2005-01-17 10:19:33 51°16.003 2°42.682 7.442766 3.512151 34.167733 1.308734
2005-01-17 10:20:33 51°15.968 2°42.682 7.4305 3.507831 34.147552 1.005349
2005-01-17 10:21:33 51°15.973 2°42.686 7.426236 3.511624 34.200228 1.376153
2005-01-17 10:22:33 51°15.987 2°42.689 7.42771 3.51194 34.201156 1.207606
2005-01-17 10:23:32 51°16.001 2°42.689 7.428079 3.51194 34.200325 1.308734
2005-01-17 10:24:33 51°16.016 2°42.692 7.427447 3.512362 34.204887 1.207606
2005-01-17 10:25:32 51°16.026 2°42.698 7.426657 3.512046 34.202297 1.241315
2005-01-17 10:26:33 51°16.038 2°42.707 7.4285 3.512256 34.200422 1.275024
2005-01-17 10:27:33 51°16.046 2°42.717 7.42592 3.512151 34.201775 1.275024
2005-01-17 10:28:32 51°16.053 2°42.727 7.426078 3.512467 34.206028 1.106477
2005-01-17 10:29:32 51°16.059 2°42.736 7.424657 3.511519 34.199088 1.039059
2005-01-17 10:30:33 51°16.063 2°42.748 7.4275 3.51173 34.200538 1.207606
2005-01-17 10:31:32 51°15.969 2°42.812 7.419339 3.512362 34.201562 1.140187
2005-01-17 10:32:33 51°15.763 2°42.799 7.394534 3.509623 34.192686 1.241315
2005-01-17 10:33:32 51°15.568 2°42.644 7.363555 3.506146 34.1833 1.241315
2005-01-17 10:34:33 51°15.398 2°42.405 7.345319 3.502881 34.174525 1.342443
2005-01-17 10:35:33 51°15.235 2°42.153 7.33351 3.500985 34.167278 1.612118
2005-01-17 10:36:33 51°15.071 2°41.895 7.332772 3.499721 34.161057 1.443571
2005-01-17 10:37:33 51°14.947 2°41.596 7.330768 3.499721 34.16189 1.51099
2005-01-17 10:38:33 51°14.914 2°41.231 7.341313 3.500669 34.168846 1.645828
2005-01-17 10:39:33 51°14.893 2°40.862 7.357336 3.502565 34.179424 1.51099
2005-01-17 10:40:33 51°14.87 2°40.494 7.375991 3.504988 34.192378 1.342443
2005-01-17 10:41:33 51°14.844 2°40.125 7.431395 3.506989 34.181619 1.477281
2005-01-17 10:42:32 51°14.818 2°39.763 7.532499 3.519736 34.23648 1.241315
2005-01-17 10:43:33 51°14.788 2°39.39 7.58688 3.528164 34.260305 1.207606
2005-01-17 10:44:32 51°14.747 2°39.032 7.658163 3.536275 34.282331 1.072768
2005-01-17 10:45:33 51°14.694 2°38.664 7.717524 3.544808 34.308023 1.072768
2005-01-17 10:46:32 51°14.643 2°38.306 7.752634 3.551656 34.337031 1.140187
2005-01-17 10:47:32 51°14.589 2°37.944 7.784687 3.556292 34.355444 1.308734
2005-01-17 10:48:32 51°14.537 2°37.578 7.813637 3.561032 34.374967 1.308734
2005-01-17 10:49:32 51°14.485 2°37.211 7.838284 3.564614 34.386986 1.275024
2005-01-17 10:50:33 51°14.479 2°36.839 7.862452 3.56788 34.396431 1.376153
2005-01-17 10:51:33 51°14.663 2°36.636 7.893354 3.571778 34.410994 1.275024
2005-01-17 10:52:33 51°14.88 2°36.471 7.920428 3.575571 34.425238 1.140187
2005-01-17 10:53:32 51°15.098 2°36.338 7.961435 3.580207 34.442722 1.207606
2005-01-17 10:54:33 51°15.331 2°36.351 8.018646 3.587792 34.472785 1.308734
2005-01-17 10:55:33 51°15.561 2°36.402 8.028924 3.594008 34.501334 1.308734
2005-01-17 10:56:33 51°15.785 2°36.461 8.037896 3.594008 34.501334 1.275024
2005-01-17 10:57:33 51°16.009 2°36.535 8.054013 3.595589 34.502574 1.140187
2005-01-17 10:58:33 51°16.233 2°36.618 8.075077 3.597906 34.507573 1.072768
2005-01-17 10:59:33 51°16.434 2°36.699 8.077476 3.600014 34.515255 1.173896
2005-01-17 11:00:33 51°16.56 2°36.736 8.058445 3.598855 34.51029 1.005349
2005-01-17 11:01:33 51°16.614 2°36.756 8.040035 3.595589 34.496815 1.106477
2005-01-17 11:02:33 51°16.624 2°36.759 8.040139 3.594219 34.486305 1.106477
2005-01-17 11:03:33 51°16.629 2°36.764 8.039983 3.594219 34.48466 1.005349
2005-01-17 11:04:32 51°16.633 2°36.768 8.034819 3.593903 34.485398 1.106477
2005-01-17 11:05:33 51°16.637 2°36.772 8.033358 3.592744 34.479603 1.005349
2005-01-17 11:06:33 51°16.639 2°36.777 8.025742 3.592428 34.477873 0.904221
2005-01-17 11:07:33 51°16.643 2°36.78 8.023655 3.591796 34.475235 1.106477
2005-01-17 11:08:33 51°16.649 2°36.782 8.023029 3.591269 34.472899 1.005349
2005-01-17 11:09:33 51°16.655 2°36.784 8.032993 3.590742 34.465628 1.072768
2005-01-17 11:10:33 51°16.661 2°36.788 8.032002 3.591269 34.470432 1.241315
2005-01-17 11:11:33 51°16.664 2°36.793 8.012802 3.591163 34.465195 0.97164
2005-01-17 11:12:33 51°16.665 2°36.797 7.997093 3.588003 34.456106 1.072768
2005-01-17 11:13:33 51°16.666 2°36.799 7.998294 3.586949 34.45143 1.039059
2005-01-17 11:14:32 51°16.668 2°36.8 7.996519 3.586633 34.448053 1.140187
2005-01-17 11:15:33 51°16.672 2°36.802 7.99845 3.586738 34.450824 0.97164
2005-01-17 11:16:33 51°16.675 2°36.806 8.007427 3.58716 34.448746 1.173896
2005-01-17 11:17:33 51°16.677 2°36.809 7.994014 3.586844 34.447836 2.050341
2005-01-17 11:18:33 51°16.679 2°36.812 7.989316 3.586212 34.44684 1.072768
2005-01-17 11:19:33 51°16.681 2°36.814 7.991926 3.585896 34.446752 1.275024
2005-01-17 11:20:33 51°16.683 2°36.814 7.987802 3.58579 34.447272 0.904221
2005-01-17 11:21:33 51°16.687 2°36.815 7.989159 3.585369 34.443591 0.870512
2005-01-17 11:22:33 51°16.689 2°36.818 7.988533 3.58558 34.442552 1.039059
2005-01-17 11:23:33 51°16.689 2°36.821 7.979606 3.585053 34.443503 1.140187
2005-01-17 11:24:33 51°16.69 2°36.824 7.978771 3.584105 34.436659 1.005349
2005-01-17 11:25:32 51°16.691 2°36.827 7.98065 3.584421 34.435924 1.072768
2005-01-17 11:26:33 51°16.693 2°36.827 7.983782 3.584526 34.438695 1.005349
2005-01-17 11:27:41 51°16.687 2°36.838 7.980128 3.584631 34.438999 1.173896
2005-01-17 11:28:44 51°16.632 2°36.906 7.972819 3.583788 34.434925 1.005349
2005-01-17 11:29:44 51°16.49 2°36.976 7.972923 3.583156 34.431459 0.97164
2005-01-17 11:30:44 51°16.274 2°36.929 7.991613 3.58558 34.45078 1.275024
2005-01-17 11:31:44 51°16.06 2°36.801 8.010819 3.588846 34.470873 1.207606
2005-01-17 11:32:44 51°15.846 2°36.669 8.010454 3.59011 34.481914 1.207606
2005-01-17 11:33:44 51°15.637 2°36.535 8.02522 3.591374 34.488014 1.140187
2005-01-17 11:34:44 51°15.428 2°36.393 8.029707 3.59306 34.494498 1.275024
2005-01-17 11:35:41 51°15.225 2°36.28 8.02715 3.593271 34.498395 1.308734
2005-01-17 11:36:43 51°15.002 2°36.165 7.991821 3.591269 34.486888 1.173896
2005-01-17 11:37:44 51°14.784 2°36.051 7.944983 3.58421 34.455895 1.982922
2005-01-17 11:38:40 51°14.582 2°35.952 7.91562 3.578837 34.434655 1.173896
2005-01-17 11:39:44 51°14.358 2°36.033 7.900673 3.575992 34.425629 1.578409
2005-01-17 11:40:44 51°14.195 2°36.241 7.872231 3.5722 34.410561 1.5447
2005-01-17 11:41:44 51°14.126 2°36.557 7.837029 3.568091 34.39704 1.578409
2005-01-17 11:42:43 51°14.136 2°36.885 7.800499 3.562297 34.373672 1.645828
2005-01-17 11:43:44 51°14.151 2°37.227 7.76751 3.559031 34.360907 1.5447
2005-01-17 11:44:43 51°14.175 2°37.561 7.716476 3.552499 34.339478 1.409862
2005-01-17 11:45:44 51°14.201 2°37.906 7.656432 3.544492 34.309586 1.51099
2005-01-17 11:46:44 51°14.226 2°38.243 7.629407 3.539014 34.294459 2.016631
2005-01-17 11:47:44 51°14.25 2°38.591 7.546848 3.533747 34.280756 1.443571
2005-01-17 11:48:44 51°14.272 2°38.929 7.476864 3.522264 34.23475 1.612118
2005-01-17 11:49:44 51°14.298 2°39.268 7.423446 3.516154 34.227649 2.117759
2005-01-17 11:50:44 51°14.322 2°39.605 7.425868 3.51331 34.220142 1.5447
2005-01-17 11:51:44 51°14.349 2°39.938 7.389477 3.510571 34.215435 1.713247
2005-01-17 11:52:44 51°14.369 2°40.276 7.359655 3.506357 34.197235 1.5447
2005-01-17 11:53:44 51°14.394 2°40.619 7.341102 3.501933 34.171735 2.016631
2005-01-17 11:54:44 51°14.421 2°40.956 7.342578 3.499404 34.152634 1.612118
2005-01-17 11:55:44 51°14.44 2°41.293 7.359181 3.498351 34.130393 1.443571
2005-01-17 11:56:44 51°14.458 2°41.636 7.373725 3.496876 34.105261 1.409862
2005-01-17 11:57:44 51°14.476 2°41.973 7.372408 3.495927 34.085023 1.578409
2005-01-17 11:58:44 51°14.5 2°42.313 7.357547 3.494558 34.073501 1.409862
2005-01-17 11:59:44 51°14.515 2°42.653 7.343579 3.491398 34.059988 1.342443
2005-01-17 12:00:48 51°14.535 2°43.016 7.319695 3.488237 34.049785 1.207606
2005-01-17 12:01:54 51°14.558 2°43.386 7.321541 3.482759 33.99451 1.207606
2005-01-17 12:02:54 51°14.574 2°43.724 7.327499 3.488975 34.052803 1.376153
2005-01-17 12:03:54 51°14.591 2°44.061 7.341892 3.488343 34.045117 1.443571
2005-01-17 12:04:54 51°14.608 2°44.408 7.339309 3.489185 34.043469 1.746956
2005-01-17 12:05:54 51°14.629 2°44.752 7.334143 3.492241 34.084074 1.645828
2005-01-17 12:06:54 51°14.669 2°45.089 7.333616 3.494769 34.113996 1.780665
2005-01-17 12:08:00 51°14.715 2°45.458 7.334512 3.494032 34.104332 1.645828
2005-01-17 12:09:00 51°14.75 2°45.794 7.345582 3.492241 34.075767 1.443571
2005-01-17 12:10:00 51°14.793 2°46.122 7.357494 3.494137 34.091347 1.5447
2005-01-17 12:10:58 51°14.827 2°46.438 7.355334 3.492135 34.063833 1.578409
2005-01-17 12:12:00 51°14.854 2°46.784 7.355334 3.492451 34.068089 1.578409
2005-01-17 12:13:00 51°14.881 2°47.132 7.35117 3.49203 34.062691 1.409862
2005-01-17 12:14:00 51°14.911 2°47.481 7.353489 3.489712 34.03508 1.443571
2005-01-17 12:15:02 51°14.945 2°47.836 7.328185 3.485182 33.999237 1.443571
2005-01-17 12:16:02 51°14.98 2°48.177 7.314211 3.481917 33.982054 1.173896
2005-01-17 12:17:03 51°15.017 2°48.521 7.300972 3.480653 33.988235 1.072768
2005-01-17 12:18:02 51°15.052 2°48.854 7.292637 3.479283 33.983326 1.106477
2005-01-17 12:19:02 51°15.086 2°49.195 7.287256 3.477071 33.958487 1.173896
2005-01-17 12:20:02 51°15.118 2°49.537 7.275015 3.477176 33.972897 1.308734
2005-01-17 12:21:02 51°15.147 2°49.877 7.246513 3.476123 33.975563 0.97164
2005-01-17 12:22:02 51°15.179 2°50.216 7.229829 3.474016 33.97426 0.93793
2005-01-17 12:23:02 51°15.215 2°50.555 7.21652 3.470329 33.956609 0.870512
2005-01-17 12:24:02 51°15.249 2°50.896 7.202364 3.467064 33.931898 0.93793
2005-01-17 12:25:02 51°15.277 2°51.238 7.191111 3.462956 33.904651 0.93793
2005-01-17 12:26:02 51°15.28 2°51.582 7.179803 3.460006 33.879204 0.93793
2005-01-17 12:27:02 51°15.218 2°51.914 7.157815 3.451895 33.80837 1.039059
2005-01-17 12:28:02 51°15.142 2°52.151 7.147189 3.452211 33.818437 0.836802
2005-01-17 12:29:02 51°15.084 2°52.287 7.12556 3.447049 33.791258 0.836802
2005-01-17 12:30:02 51°15.036 2°52.394 7.120906 3.444732 33.776795 1.005349
2005-01-17 12:31:02 51°14.996 2°52.494 7.127676 3.444837 33.775456 1.039059
2005-01-17 12:32:02 51°14.958 2°52.593 7.134815 3.44568 33.778004 1.039059
2005-01-17 12:33:02 51°14.918 2°52.69 7.148088 3.44726 33.787751 0.93793
2005-01-17 12:34:02 51°14.878 2°52.784 7.147083 3.448208 33.793929 0.836802
2005-01-17 12:35:02 51°14.845 2°52.884 7.150202 3.447576 33.777109 0.93793
2005-01-17 12:36:02 51°14.808 2°52.985 7.152106 3.449577 33.79475 1.039059
2005-01-17 12:37:02 51°14.769 2°53.083 7.14851 3.448945 33.791184 0.803093
2005-01-17 12:38:02 51°14.731 2°53.182 7.157339 3.448629 33.788573 0.904221
2005-01-17 12:39:03 51°14.695 2°53.283 7.145232 3.447576 33.782078 0.904221
2005-01-17 12:40:02 51°14.668 2°53.389 7.135027 3.446417 33.774434 1.308734
2005-01-17 12:41:02 51°14.644 2°53.501 7.123233 3.443889 33.757677 0.93793
2005-01-17 12:42:02 51°14.618 2°53.592 7.109057 3.440097 33.732113 0.836802
2005-01-17 12:43:02 51°14.593 2°53.67 7.081594 3.435146 33.701357 0.769383
2005-01-17 12:44:02 51°14.566 2°53.776 7.068891 3.432829 33.689346 0.93793
2005-01-17 12:45:02 51°14.534 2°53.926 7.031455 3.429669 33.667314 0.93793
2005-01-17 12:46:02 51°14.498 2°54.143 6.993733 3.420189 33.608594 0.870512
2005-01-17 12:47:02 51°14.463 2°54.432 6.970357 3.40955 33.526369 0.904221
2005-01-17 12:48:01 51°14.426 2°54.741 6.951959 3.396172 33.400942 0.97164